Home   Weather   USA   Uvalde   Past weeks
Flag for USA

Past Weather in Uvalde, Texas, USA — Yesterday and Last 2 Weeks

Currently: 86 °F. Mostly cloudy. (Weather station: Garner Field Airport, USA). See more current weather

Past Weather in Uvalde — Graph

°F

Uvalde Temperature Yesterday

Maximum temperature yesterday: 99 °F (at 4:35 pm)
Minimum temperature yesterday: 74 °F (at 6:55 am)
Average temperature yesterday: 83 °F

High & Low Weather Summary for the Past Weeks

 TemperatureHumidityPressure
High99 °F (Jul 21, 4:35 pm)100% (Jul 9, 2:35 pm)30.22 "Hg (Jul 9, 2:35 pm)
Low69 °F (Jul 12, 6:55 am)24% (Jul 21, 5:15 pm)29.77 "Hg (Jul 7, 6:15 pm)
Average82 °F73%30.03 "Hg
* Reported Jul 7 6:15 pm — Jul 22 6:15 pm, Uvalde. Weather by CustomWeather, © 2024

Note: Actual official high and low records may vary slightly from our data, if they occured in-between our weather recording intervals... More about our weather records

Uvalde Weather History for the Previous 24 Hours

Scroll right to see more
 ConditionsComfort  
Time TempWeatherWind HumidityBarometerVisibility
6:15 pm
Mon, Jul 22
94 °FPartly sunny.5 mph37%29.91 "Hg10 mi
5:35 pm94 °FSunny.7 mph36%29.92 "Hg10 mi
5:15 pm94 °FSunny.7 mph36%29.92 "Hg10 mi
4:55 pm94 °FSunny.15 mph38%29.92 "Hg10 mi
4:35 pm96 °FScattered clouds.15 mph35%29.92 "Hg10 mi
4:15 pm96 °FPartly sunny.8 mph35%29.93 "Hg10 mi
3:35 pm96 °FScattered clouds.8 mph34%29.95 "Hg10 mi
2:55 pm94 °FPartly sunny.6 mph37%29.96 "Hg10 mi
1:55 pm92 °FBroken clouds.9 mph43%29.98 "Hg10 mi
1:35 pm90 °FPartly sunny.10 mph46%29.99 "Hg10 mi
1:15 pm90 °FBroken clouds.3 mph48%30.00 "Hg10 mi
12:55 pm89 °FPartly sunny.6 mph51%30.01 "Hg10 mi
12:35 pm89 °FBroken clouds.8 mph52%30.02 "Hg10 mi
11:55 am87 °FPartly sunny.7 mph57%30.03 "Hg10 mi
11:15 am85 °FPartly sunny.No wind62%30.04 "Hg10 mi
10:55 am84 °FPartly sunny.5 mph65%30.04 "Hg10 mi
10:35 am84 °FScattered clouds.5 mph65%30.04 "Hg10 mi
10:15 am82 °FScattered clouds.6 mph71%30.04 "Hg10 mi
9:55 am81 °FScattered clouds.7 mph72%30.04 "Hg10 mi
9:35 am80 °FScattered clouds.9 mph84%30.03 "Hg10 mi
9:15 am80 °FSunny.7 mph86%30.03 "Hg10 mi
8:55 am78 °FSunny.8 mph94%30.03 "Hg10 mi
8:15 am76 °FSunny.8 mph100%30.03 "Hg10 mi
7:55 am75 °FSunny.7 mph100%30.02 "Hg10 mi
7:35 am74 °FSunny.5 mph100%30.02 "Hg10 mi
7:15 am74 °FSunny.5 mph100%30.01 "Hg10 mi
6:55 am74 °FSunny.6 mph100%30.00 "Hg10 mi
6:35 am74 °FClear.6 mph100%29.99 "Hg10 mi
6:15 am74 °FClear.7 mph100%29.99 "Hg10 mi
5:55 am74 °FClear.3 mph100%29.99 "Hg10 mi
5:35 am74 °FClear.3 mph100%29.98 "Hg10 mi
5:15 am75 °FClear.5 mph100%29.98 "Hg10 mi
4:55 am75 °FClear.6 mph100%29.98 "Hg10 mi
4:35 am75 °FClear.7 mph100%29.98 "Hg10 mi
4:15 am75 °FClear.7 mph100%29.98 "Hg10 mi
3:35 am75 °FClear.6 mph98%29.98 "Hg10 mi
2:55 am76 °FClear.8 mph96%29.99 "Hg10 mi
2:15 am77 °FClear.6 mph88%29.99 "Hg10 mi
1:55 am77 °FClear.6 mph87%30.00 "Hg10 mi
1:35 am78 °FClear.5 mph84%30.01 "Hg10 mi
12:55 am79 °FClear.6 mph80%30.00 "Hg10 mi
12:35 am79 °FClear.6 mph79%30.00 "Hg10 mi
11:55 pm
Sun, Jul 21
79 °FClear.5 mph70%30.02 "Hg10 mi
11:35 pm79 °FClear.6 mph69%30.02 "Hg10 mi
11:15 pm80 °FClear.3 mph67%30.01 "Hg10 mi
10:55 pm81 °FClear.6 mph67%30.01 "Hg10 mi
10:35 pm80 °FClear.7 mph71%30.00 "Hg10 mi
10:15 pm79 °FClear.7 mph72%29.99 "Hg10 mi
9:55 pm78 °FClear.10 mph77%29.99 "Hg10 mi
9:15 pm79 °FClear.20 mph70%30.00 "Hg10 mi
8:35 pm79 °FScattered clouds.21 mph69%29.97 "Hg10 mi
8:15 pm82 °FScattered clouds.21 mph59%29.97 "Hg10 mi
7:55 pm82 °FSunny.14 mph61%29.97 "Hg10 mi
7:35 pm83 °FSunny.17 mph59%29.97 "Hg10 mi
7:15 pm83 °FSunny.20 mph60%29.96 "Hg10 mi
Weather by CustomWeather, © 2024

See weather overview